sensor_id;sensor_type;location;lat;lon;timestamp;temperature;humidity
68912;SHT31;55953;51.650;-0.522;2023-06-10T00:00:04;15.08;77.87
68912;SHT31;55953;51.650;-0.522;2023-06-10T00:03:00;15.02;77.89
68912;SHT31;55953;51.650;-0.522;2023-06-10T00:05:28;14.98;77.90
68912;SHT31;55953;51.650;-0.522;2023-06-10T00:07:59;14.92;77.86
68912;SHT31;55953;51.650;-0.522;2023-06-10T00:10:27;14.90;77.85
68912;SHT31;55953;51.650;-0.522;2023-06-10T00:12:55;14.88;77.89
68912;SHT31;55953;51.650;-0.522;2023-06-10T00:15:23;14.84;78.51
68912;SHT31;55953;51.650;-0.522;2023-06-10T00:17:51;14.78;78.22
68912;SHT31;55953;51.650;-0.522;2023-06-10T00:20:22;14.76;78.26
68912;SHT31;55953;51.650;-0.522;2023-06-10T00:22:53;14.70;78.52
68912;SHT31;55953;51.650;-0.522;2023-06-10T00:25:21;14.64;78.82
68912;SHT31;55953;51.650;-0.522;2023-06-10T00:27:49;14.62;78.40
68912;SHT31;55953;51.650;-0.522;2023-06-10T00:30:16;14.58;79.16
68912;SHT31;55953;51.650;-0.522;2023-06-10T00:32:45;14.54;79.09
68912;SHT31;55953;51.650;-0.522;2023-06-10T00:35:13;14.54;78.81
68912;SHT31;55953;51.650;-0.522;2023-06-10T00:37:40;14.52;79.01
68912;SHT31;55953;51.650;-0.522;2023-06-10T00:40:09;14.50;78.85
68912;SHT31;55953;51.650;-0.522;2023-06-10T00:42:38;14.49;78.90
68912;SHT31;55953;51.650;-0.522;2023-06-10T00:45:06;14.46;79.32
68912;SHT31;55953;51.650;-0.522;2023-06-10T00:47:36;14.40;79.53
68912;SHT31;55953;51.650;-0.522;2023-06-10T00:50:05;14.37;79.32
68912;SHT31;55953;51.650;-0.522;2023-06-10T00:52:34;14.30;80.06
68912;SHT31;55953;51.650;-0.522;2023-06-10T00:55:03;14.26;79.73
68912;SHT31;55953;51.650;-0.522;2023-06-10T00:57:31;14.27;79.64
68912;SHT31;55953;51.650;-0.522;2023-06-10T01:00:00;14.25;79.32
68912;SHT31;55953;51.650;-0.522;2023-06-10T01:02:28;14.24;79.51
68912;SHT31;55953;51.650;-0.522;2023-06-10T01:04:58;14.17;79.82
68912;SHT31;55953;51.650;-0.522;2023-06-10T01:07:34;14.12;79.92
68912;SHT31;55953;51.650;-0.522;2023-06-10T01:10:33;14.07;79.90
68912;SHT31;55953;51.650;-0.522;2023-06-10T01:13:11;14.04;79.86
68912;SHT31;55953;51.650;-0.522;2023-06-10T01:15:41;14.02;79.94
68912;SHT31;55953;51.650;-0.522;2023-06-10T01:18:10;14.00;79.90
68912;SHT31;55953;51.650;-0.522;2023-06-10T01:20:43;13.94;80.29
68912;SHT31;55953;51.650;-0.522;2023-06-10T01:23:17;13.90;80.87
68912;SHT31;55953;51.650;-0.522;2023-06-10T01:25:47;13.85;80.85
68912;SHT31;55953;51.650;-0.522;2023-06-10T01:34:09;13.81;80.61
68912;SHT31;55953;51.650;-0.522;2023-06-10T01:36:41;13.81;80.44
68912;SHT31;55953;51.650;-0.522;2023-06-10T01:39:15;13.79;80.61
68912;SHT31;55953;51.650;-0.522;2023-06-10T01:41:48;13.75;81.24
68912;SHT31;55953;51.650;-0.522;2023-06-10T01:44:21;13.72;81.06
68912;SHT31;55953;51.650;-0.522;2023-06-10T01:46:50;13.71;80.78
68912;SHT31;55953;51.650;-0.522;2023-06-10T01:49:18;13.69;80.87
68912;SHT31;55953;51.650;-0.522;2023-06-10T01:51:46;13.68;80.92
68912;SHT31;55953;51.650;-0.522;2023-06-10T01:54:14;13.63;81.71
68912;SHT31;55953;51.650;-0.522;2023-06-10T01:56:42;13.63;81.42
68912;SHT31;55953;51.650;-0.522;2023-06-10T01:59:10;13.63;81.18
68912;SHT31;55953;51.650;-0.522;2023-06-10T02:01:38;13.64;81.18
68912;SHT31;55953;51.650;-0.522;2023-06-10T02:04:06;13.62;81.37
68912;SHT31;55953;51.650;-0.522;2023-06-10T02:06:34;13.61;81.29
68912;SHT31;55953;51.650;-0.522;2023-06-10T02:09:03;13.60;81.30
68912;SHT31;55953;51.650;-0.522;2023-06-10T02:11:31;13.61;81.41
68912;SHT31;55953;51.650;-0.522;2023-06-10T02:13:59;13.58;81.46
68912;SHT31;55953;51.650;-0.522;2023-06-10T02:16:27;13.56;81.57
68912;SHT31;55953;51.650;-0.522;2023-06-10T02:18:55;13.55;81.61
68912;SHT31;55953;51.650;-0.522;2023-06-10T02:21:23;13.53;81.94
68912;SHT31;55953;51.650;-0.522;2023-06-10T02:23:51;13.51;81.81
68912;SHT31;55953;51.650;-0.522;2023-06-10T02:26:19;13.50;82.17
68912;SHT31;55953;51.650;-0.522;2023-06-10T02:28:47;13.49;81.93
68912;SHT31;55953;51.650;-0.522;2023-06-10T02:31:15;13.51;81.44
68912;SHT31;55953;51.650;-0.522;2023-06-10T02:33:45;13.49;82.06
68912;SHT31;55953;51.650;-0.522;2023-06-10T02:36:14;13.46;81.91
68912;SHT31;55953;51.650;-0.522;2023-06-10T02:38:42;13.45;82.20
68912;SHT31;55953;51.650;-0.522;2023-06-10T02:41:10;13.43;81.94
68912;SHT31;55953;51.650;-0.522;2023-06-10T02:43:38;13.44;81.96
68912;SHT31;55953;51.650;-0.522;2023-06-10T02:46:07;13.41;82.24
68912;SHT31;55953;51.650;-0.522;2023-06-10T02:48:43;13.38;82.54
68912;SHT31;55953;51.650;-0.522;2023-06-10T02:51:19;13.38;82.13
68912;SHT31;55953;51.650;-0.522;2023-06-10T02:53:49;13.36;82.23
68912;SHT31;55953;51.650;-0.522;2023-06-10T02:56:17;13.35;82.00
68912;SHT31;55953;51.650;-0.522;2023-06-10T02:58:45;13.34;82.32
68912;SHT31;55953;51.650;-0.522;2023-06-10T03:01:14;13.33;82.22
68912;SHT31;55953;51.650;-0.522;2023-06-10T03:03:57;13.34;82.18
68912;SHT31;55953;51.650;-0.522;2023-06-10T03:06:26;13.33;82.00
68912;SHT31;55953;51.650;-0.522;2023-06-10T03:09:04;13.32;82.00
68912;SHT31;55953;51.650;-0.522;2023-06-10T03:11:33;13.32;81.98
68912;SHT31;55953;51.650;-0.522;2023-06-10T03:14:01;13.31;82.42
68912;SHT31;55953;51.650;-0.522;2023-06-10T03:16:30;13.27;82.15
68912;SHT31;55953;51.650;-0.522;2023-06-10T03:18:59;13.26;82.51
68912;SHT31;55953;51.650;-0.522;2023-06-10T03:21:27;13.24;82.59
68912;SHT31;55953;51.650;-0.522;2023-06-10T03:23:56;13.23;82.34
68912;SHT31;55953;51.650;-0.522;2023-06-10T03:26:24;13.24;82.43
68912;SHT31;55953;51.650;-0.522;2023-06-10T03:28:55;13.25;82.39
68912;SHT31;55953;51.650;-0.522;2023-06-10T03:31:23;13.23;82.45
68912;SHT31;55953;51.650;-0.522;2023-06-10T03:33:52;13.21;83.02
68912;SHT31;55953;51.650;-0.522;2023-06-10T03:36:20;13.18;82.88
68912;SHT31;55953;51.650;-0.522;2023-06-10T03:38:48;13.18;82.82
68912;SHT31;55953;51.650;-0.522;2023-06-10T03:41:19;13.18;82.50
68912;SHT31;55953;51.650;-0.522;2023-06-10T03:43:49;13.18;82.83
68912;SHT31;55953;51.650;-0.522;2023-06-10T03:46:17;13.16;82.66
68912;SHT31;55953;51.650;-0.522;2023-06-10T03:48:45;13.13;82.59
68912;SHT31;55953;51.650;-0.522;2023-06-10T03:51:13;13.13;82.82
68912;SHT31;55953;51.650;-0.522;2023-06-10T03:53:41;13.14;82.65
68912;SHT31;55953;51.650;-0.522;2023-06-10T03:56:09;13.13;82.90
68912;SHT31;55953;51.650;-0.522;2023-06-10T03:58:37;13.13;82.81
68912;SHT31;55953;51.650;-0.522;2023-06-10T04:01:06;13.13;82.94
68912;SHT31;55953;51.650;-0.522;2023-06-10T04:03:34;13.13;82.67
68912;SHT31;55953;51.650;-0.522;2023-06-10T04:06:02;13.16;82.38
68912;SHT31;55953;51.650;-0.522;2023-06-10T04:08:32;13.19;82.27
68912;SHT31;55953;51.650;-0.522;2023-06-10T04:11:00;13.22;82.28
68912;SHT31;55953;51.650;-0.522;2023-06-10T04:13:29;13.20;82.55
68912;SHT31;55953;51.650;-0.522;2023-06-10T04:15:58;13.18;82.40
68912;SHT31;55953;51.650;-0.522;2023-06-10T04:18:26;13.20;82.27
68912;SHT31;55953;51.650;-0.522;2023-06-10T04:20:56;13.21;82.40
68912;SHT31;55953;51.650;-0.522;2023-06-10T04:23:24;13.17;82.78
68912;SHT31;55953;51.650;-0.522;2023-06-10T04:25:53;13.15;82.89
68912;SHT31;55953;51.650;-0.522;2023-06-10T04:28:21;13.16;82.65
68912;SHT31;55953;51.650;-0.522;2023-06-10T04:30:49;13.18;82.92
68912;SHT31;55953;51.650;-0.522;2023-06-10T04:33:17;13.21;82.49
68912;SHT31;55953;51.650;-0.522;2023-06-10T04:35:45;13.23;82.35
68912;SHT31;55953;51.650;-0.522;2023-06-10T04:38:15;13.26;82.17
68912;SHT31;55953;51.650;-0.522;2023-06-10T04:40:43;13.31;82.06
68912;SHT31;55953;51.650;-0.522;2023-06-10T04:43:12;13.34;81.93
68912;SHT31;55953;51.650;-0.522;2023-06-10T04:45:40;13.36;82.06
68912;SHT31;55953;51.650;-0.522;2023-06-10T04:48:12;13.41;81.81
68912;SHT31;55953;51.650;-0.522;2023-06-10T04:50:41;13.45;81.82
68912;SHT31;55953;51.650;-0.522;2023-06-10T04:53:10;13.50;81.71
68912;SHT31;55953;51.650;-0.522;2023-06-10T04:55:40;13.54;81.67
68912;SHT31;55953;51.650;-0.522;2023-06-10T04:58:08;13.57;81.53
68912;SHT31;55953;51.650;-0.522;2023-06-10T05:00:36;13.60;81.64
68912;SHT31;55953;51.650;-0.522;2023-06-10T05:03:03;13.64;81.34
68912;SHT31;55953;51.650;-0.522;2023-06-10T05:05:32;13.70;81.41
68912;SHT31;55953;51.650;-0.522;2023-06-10T05:08:00;13.68;81.55
68912;SHT31;55953;51.650;-0.522;2023-06-10T05:10:27;13.75;81.30
68912;SHT31;55953;51.650;-0.522;2023-06-10T05:12:59;13.79;81.15
68912;SHT31;55953;51.650;-0.522;2023-06-10T05:15:28;13.84;80.98
68912;SHT31;55953;51.650;-0.522;2023-06-10T05:17:56;13.88;80.95
68912;SHT31;55953;51.650;-0.522;2023-06-10T05:20:25;13.94;80.72
68912;SHT31;55953;51.650;-0.522;2023-06-10T05:22:54;14.04;80.57
68912;SHT31;55953;51.650;-0.522;2023-06-10T05:25:23;14.15;80.47
68912;SHT31;55953;51.650;-0.522;2023-06-10T05:27:50;14.20;80.21
68912;SHT31;55953;51.650;-0.522;2023-06-10T05:30:18;14.23;80.09
68912;SHT31;55953;51.650;-0.522;2023-06-10T05:32:46;14.32;79.95
68912;SHT31;55953;51.650;-0.522;2023-06-10T05:35:15;14.38;79.83
68912;SHT31;55953;51.650;-0.522;2023-06-10T05:37:43;14.41;79.76
68912;SHT31;55953;51.650;-0.522;2023-06-10T05:40:11;14.49;79.56
68912;SHT31;55953;51.650;-0.522;2023-06-10T05:42:39;14.60;79.37
68912;SHT31;55953;51.650;-0.522;2023-06-10T05:45:08;14.69;79.27
68912;SHT31;55953;51.650;-0.522;2023-06-10T05:47:37;14.79;79.01
68912;SHT31;55953;51.650;-0.522;2023-06-10T05:50:05;14.89;78.89
68912;SHT31;55953;51.650;-0.522;2023-06-10T05:52:34;14.94;78.67
68912;SHT31;55953;51.650;-0.522;2023-06-10T05:55:04;15.00;78.63
68912;SHT31;55953;51.650;-0.522;2023-06-10T05:57:32;15.09;78.55
68912;SHT31;55953;51.650;-0.522;2023-06-10T06:00:01;15.18;78.07
68912;SHT31;55953;51.650;-0.522;2023-06-10T06:02:38;15.22;78.07
68912;SHT31;55953;51.650;-0.522;2023-06-10T06:05:07;15.28;78.11
68912;SHT31;55953;51.650;-0.522;2023-06-10T06:07:35;15.39;78.09
68912;SHT31;55953;51.650;-0.522;2023-06-10T06:10:04;15.51;77.60
68912;SHT31;55953;51.650;-0.522;2023-06-10T06:12:32;15.56;77.37
68912;SHT31;55953;51.650;-0.522;2023-06-10T06:15:00;15.66;77.37
68912;SHT31;55953;51.650;-0.522;2023-06-10T06:17:29;15.71;77.08
68912;SHT31;55953;51.650;-0.522;2023-06-10T06:19:57;15.72;76.99
68912;SHT31;55953;51.650;-0.522;2023-06-10T06:22:25;15.73;76.83
68912;SHT31;55953;51.650;-0.522;2023-06-10T06:24:53;15.77;76.80
68912;SHT31;55953;51.650;-0.522;2023-06-10T06:27:21;15.82;76.76
68912;SHT31;55953;51.650;-0.522;2023-06-10T06:29:49;15.89;76.62
68912;SHT31;55953;51.650;-0.522;2023-06-10T06:32:19;15.94;76.33
68912;SHT31;55953;51.650;-0.522;2023-06-10T06:34:53;15.95;76.25
68912;SHT31;55953;51.650;-0.522;2023-06-10T06:37:22;15.99;76.31
68912;SHT31;55953;51.650;-0.522;2023-06-10T06:39:55;16.04;76.19
68912;SHT31;55953;51.650;-0.522;2023-06-10T06:42:23;16.10;76.20
68912;SHT31;55953;51.650;-0.522;2023-06-10T06:45:03;16.21;76.16
68912;SHT31;55953;51.650;-0.522;2023-06-10T06:47:32;16.34;75.84
68912;SHT31;55953;51.650;-0.522;2023-06-10T06:50:00;16.44;75.60
68912;SHT31;55953;51.650;-0.522;2023-06-10T06:52:28;16.58;75.46
68912;SHT31;55953;51.650;-0.522;2023-06-10T06:54:56;16.65;75.18
68912;SHT31;55953;51.650;-0.522;2023-06-10T06:57:24;16.77;75.16
68912;SHT31;55953;51.650;-0.522;2023-06-10T06:59:52;16.90;75.20
68912;SHT31;55953;51.650;-0.522;2023-06-10T07:02:20;17.02;74.87
68912;SHT31;55953;51.650;-0.522;2023-06-10T07:04:48;17.15;74.83
68912;SHT31;55953;51.650;-0.522;2023-06-10T07:07:17;17.28;74.49
68912;SHT31;55953;51.650;-0.522;2023-06-10T07:09:45;17.36;74.19
68912;SHT31;55953;51.650;-0.522;2023-06-10T07:12:13;17.45;73.90
68912;SHT31;55953;51.650;-0.522;2023-06-10T07:14:41;17.56;73.69
68912;SHT31;55953;51.650;-0.522;2023-06-10T07:17:09;17.67;73.56
68912;SHT31;55953;51.650;-0.522;2023-06-10T07:19:37;17.78;73.31
68912;SHT31;55953;51.650;-0.522;2023-06-10T07:22:05;17.91;73.37
68912;SHT31;55953;51.650;-0.522;2023-06-10T07:24:33;18.08;72.83
68912;SHT31;55953;51.650;-0.522;2023-06-10T07:27:01;18.16;72.21
68912;SHT31;55953;51.650;-0.522;2023-06-10T07:29:28;18.24;72.28
68912;SHT31;55953;51.650;-0.522;2023-06-10T07:31:56;18.42;72.27
68912;SHT31;55953;51.650;-0.522;2023-06-10T07:34:24;18.61;71.90
68912;SHT31;55953;51.650;-0.522;2023-06-10T07:36:52;18.76;71.08
68912;SHT31;55953;51.650;-0.522;2023-06-10T07:39:20;18.86;70.82
68912;SHT31;55953;51.650;-0.522;2023-06-10T07:41:48;19.01;70.63
68912;SHT31;55953;51.650;-0.522;2023-06-10T07:44:17;19.26;70.63
68912;SHT31;55953;51.650;-0.522;2023-06-10T07:46:45;19.49;70.03
68912;SHT31;55953;51.650;-0.522;2023-06-10T07:49:13;19.69;69.86
68912;SHT31;55953;51.650;-0.522;2023-06-10T07:51:41;19.89;69.23
68912;SHT31;55953;51.650;-0.522;2023-06-10T07:54:09;20.02;68.52
68912;SHT31;55953;51.650;-0.522;2023-06-10T07:56:44;20.08;67.97
68912;SHT31;55953;51.650;-0.522;2023-06-10T07:59:13;20.15;67.39
68912;SHT31;55953;51.650;-0.522;2023-06-10T08:01:41;20.18;67.52
68912;SHT31;55953;51.650;-0.522;2023-06-10T08:04:10;20.33;67.62
68912;SHT31;55953;51.650;-0.522;2023-06-10T08:06:38;20.51;67.70
68912;SHT31;55953;51.650;-0.522;2023-06-10T08:09:06;20.85;67.15
68912;SHT31;55953;51.650;-0.522;2023-06-10T08:11:34;21.19;65.99
68912;SHT31;55953;51.650;-0.522;2023-06-10T08:14:02;21.63;64.98
68912;SHT31;55953;51.650;-0.522;2023-06-10T08:16:30;21.95;64.55
68912;SHT31;55953;51.650;-0.522;2023-06-10T08:18:58;22.52;63.83
68912;SHT31;55953;51.650;-0.522;2023-06-10T08:21:26;22.99;62.66
68912;SHT31;55953;51.650;-0.522;2023-06-10T08:23:56;23.33;61.78
68912;SHT31;55953;51.650;-0.522;2023-06-10T08:26:24;23.83;60.90
68912;SHT31;55953;51.650;-0.522;2023-06-10T08:28:53;24.32;59.85
68912;SHT31;55953;51.650;-0.522;2023-06-10T08:31:21;24.69;58.81
68912;SHT31;55953;51.650;-0.522;2023-06-10T08:33:49;24.93;58.44
68912;SHT31;55953;51.650;-0.522;2023-06-10T08:36:18;25.08;58.04
68912;SHT31;55953;51.650;-0.522;2023-06-10T08:38:46;25.07;57.57
68912;SHT31;55953;51.650;-0.522;2023-06-10T08:41:14;24.86;56.49
68912;SHT31;55953;51.650;-0.522;2023-06-10T08:43:54;24.69;57.67
68912;SHT31;55953;51.650;-0.522;2023-06-10T08:46:36;24.71;57.60
68912;SHT31;55953;51.650;-0.522;2023-06-10T08:49:06;24.69;58.06
68912;SHT31;55953;51.650;-0.522;2023-06-10T08:51:35;24.75;57.82
68912;SHT31;55953;51.650;-0.522;2023-06-10T08:54:11;24.74;57.61
68912;SHT31;55953;51.650;-0.522;2023-06-10T08:56:58;24.72;57.36
68912;SHT31;55953;51.650;-0.522;2023-06-10T08:59:34;24.67;57.74
68912;SHT31;55953;51.650;-0.522;2023-06-10T09:02:02;24.67;57.70
68912;SHT31;55953;51.650;-0.522;2023-06-10T09:04:32;24.67;57.56
68912;SHT31;55953;51.650;-0.522;2023-06-10T09:07:00;24.57;57.18
68912;SHT31;55953;51.650;-0.522;2023-06-10T09:09:30;24.45;57.11
68912;SHT31;55953;51.650;-0.522;2023-06-10T09:11:59;24.28;57.05
68912;SHT31;55953;51.650;-0.522;2023-06-10T09:14:27;24.15;57.99
68912;SHT31;55953;51.650;-0.522;2023-06-10T09:16:55;24.16;58.31
68912;SHT31;55953;51.650;-0.522;2023-06-10T09:19:25;24.17;58.36
68912;SHT31;55953;51.650;-0.522;2023-06-10T09:21:56;24.21;58.59
68912;SHT31;55953;51.650;-0.522;2023-06-10T09:24:24;24.29;58.70
68912;SHT31;55953;51.650;-0.522;2023-06-10T09:27:01;24.41;58.74
68912;SHT31;55953;51.650;-0.522;2023-06-10T09:29:47;24.52;58.51
68912;SHT31;55953;51.650;-0.522;2023-06-10T09:32:20;24.56;57.38
68912;SHT31;55953;51.650;-0.522;2023-06-10T09:34:48;24.51;57.76
68912;SHT31;55953;51.650;-0.522;2023-06-10T09:37:22;24.59;58.80
68912;SHT31;55953;51.650;-0.522;2023-06-10T09:40:04;24.71;58.03
68912;SHT31;55953;51.650;-0.522;2023-06-10T09:42:38;24.70;57.34
68912;SHT31;55953;51.650;-0.522;2023-06-10T09:45:21;24.72;57.99
68912;SHT31;55953;51.650;-0.522;2023-06-10T09:47:51;24.78;57.60
68912;SHT31;55953;51.650;-0.522;2023-06-10T09:50:21;24.88;58.16
68912;SHT31;55953;51.650;-0.522;2023-06-10T09:52:49;25.02;57.63
68912;SHT31;55953;51.650;-0.522;2023-06-10T09:55:18;25.13;57.63
68912;SHT31;55953;51.650;-0.522;2023-06-10T09:57:48;25.26;57.35
68912;SHT31;55953;51.650;-0.522;2023-06-10T10:00:21;25.38;56.65
68912;SHT31;55953;51.650;-0.522;2023-06-10T10:02:52;25.45;56.95
68912;SHT31;55953;51.650;-0.522;2023-06-10T10:05:22;25.56;56.18
68912;SHT31;55953;51.650;-0.522;2023-06-10T10:07:51;25.69;56.15
68912;SHT31;55953;51.650;-0.522;2023-06-10T10:10:24;25.81;55.56
68912;SHT31;55953;51.650;-0.522;2023-06-10T10:12:55;25.93;55.44
68912;SHT31;55953;51.650;-0.522;2023-06-10T10:15:25;26.05;55.46
68912;SHT31;55953;51.650;-0.522;2023-06-10T10:20:50;26.23;55.20
68912;SHT31;55953;51.650;-0.522;2023-06-10T10:23:26;26.39;55.49
68912;SHT31;55953;51.650;-0.522;2023-06-10T10:26:04;26.57;54.80
68912;SHT31;55953;51.650;-0.522;2023-06-10T10:28:41;26.64;54.36
68912;SHT31;55953;51.650;-0.522;2023-06-10T10:31:18;26.70;54.16
68912;SHT31;55953;51.650;-0.522;2023-06-10T10:34:00;26.79;54.61
68912;SHT31;55953;51.650;-0.522;2023-06-10T10:36:34;26.92;54.16
68912;SHT31;55953;51.650;-0.522;2023-06-10T10:39:04;27.03;53.54
68912;SHT31;55953;51.650;-0.522;2023-06-10T10:41:32;27.10;52.12
68912;SHT31;55953;51.650;-0.522;2023-06-10T10:44:05;27.15;51.60
68912;SHT31;55953;51.650;-0.522;2023-06-10T10:46:43;27.14;51.16
68912;SHT31;55953;51.650;-0.522;2023-06-10T10:49:22;27.20;51.35
68912;SHT31;55953;51.650;-0.522;2023-06-10T10:51:56;27.30;51.80
68912;SHT31;55953;51.650;-0.522;2023-06-10T10:54:30;27.45;51.48
68912;SHT31;55953;51.650;-0.522;2023-06-10T10:59:51;27.66;49.18
68912;SHT31;55953;51.650;-0.522;2023-06-10T11:05:15;27.82;48.54
68912;SHT31;55953;51.650;-0.522;2023-06-10T11:07:54;27.89;48.30
68912;SHT31;55953;51.650;-0.522;2023-06-10T11:10:28;27.98;48.07
68912;SHT31;55953;51.650;-0.522;2023-06-10T11:15:44;28.19;48.16
68912;SHT31;55953;51.650;-0.522;2023-06-10T11:18:28;28.32;46.96
68912;SHT31;55953;51.650;-0.522;2023-06-10T11:21:06;28.43;45.99
68912;SHT31;55953;51.650;-0.522;2023-06-10T11:23:38;28.50;46.24
68912;SHT31;55953;51.650;-0.522;2023-06-10T11:31:19;28.75;45.54
68912;SHT31;55953;51.650;-0.522;2023-06-10T11:33:57;28.89;45.24
68912;SHT31;55953;51.650;-0.522;2023-06-10T11:36:28;28.98;45.26
68912;SHT31;55953;51.650;-0.522;2023-06-10T11:39:01;29.08;44.48
68912;SHT31;55953;51.650;-0.522;2023-06-10T11:41:34;29.17;43.94
68912;SHT31;55953;51.650;-0.522;2023-06-10T11:44:08;29.24;43.64
68912;SHT31;55953;51.650;-0.522;2023-06-10T11:46:39;29.31;43.59
68912;SHT31;55953;51.650;-0.522;2023-06-10T11:49:13;29.39;43.50
68912;SHT31;55953;51.650;-0.522;2023-06-10T11:51:42;29.53;43.12
68912;SHT31;55953;51.650;-0.522;2023-06-10T11:54:17;29.67;43.08
68912;SHT31;55953;51.650;-0.522;2023-06-10T11:56:47;29.80;42.44
68912;SHT31;55953;51.650;-0.522;2023-06-10T11:59:16;29.94;41.96
68912;SHT31;55953;51.650;-0.522;2023-06-10T12:01:45;30.06;41.73
68912;SHT31;55953;51.650;-0.522;2023-06-10T12:04:16;30.18;41.48
68912;SHT31;55953;51.650;-0.522;2023-06-10T12:06:47;30.31;41.27
68912;SHT31;55953;51.650;-0.522;2023-06-10T12:11:57;30.63;40.66
68912;SHT31;55953;51.650;-0.522;2023-06-10T12:20:00;30.99;39.39
68912;SHT31;55953;51.650;-0.522;2023-06-10T12:22:39;31.09;39.22
68912;SHT31;55953;51.650;-0.522;2023-06-10T12:25:10;31.17;38.81
68912;SHT31;55953;51.650;-0.522;2023-06-10T12:27:41;31.17;38.95
68912;SHT31;55953;51.650;-0.522;2023-06-10T12:30:23;30.96;38.27
68912;SHT31;55953;51.650;-0.522;2023-06-10T12:32:54;30.79;38.70
68912;SHT31;55953;51.650;-0.522;2023-06-10T12:35:24;30.96;39.02
68912;SHT31;55953;51.650;-0.522;2023-06-10T12:40:31;31.29;38.69
68912;SHT31;55953;51.650;-0.522;2023-06-10T12:43:03;31.29;37.21
68912;SHT31;55953;51.650;-0.522;2023-06-10T12:48:21;31.63;36.86
68912;SHT31;55953;51.650;-0.522;2023-06-10T12:50:52;31.94;36.58
68912;SHT31;55953;51.650;-0.522;2023-06-10T12:53:21;32.15;35.78
68912;SHT31;55953;51.650;-0.522;2023-06-10T12:55:51;32.11;35.94
68912;SHT31;55953;51.650;-0.522;2023-06-10T12:58:21;32.01;35.62
68912;SHT31;55953;51.650;-0.522;2023-06-10T13:00:51;31.95;34.94
68912;SHT31;55953;51.650;-0.522;2023-06-10T13:03:21;31.69;34.45
68912;SHT31;55953;51.650;-0.522;2023-06-10T13:05:49;31.44;34.58
68912;SHT31;55953;51.650;-0.522;2023-06-10T13:08:17;31.35;35.20
68912;SHT31;55953;51.650;-0.522;2023-06-10T13:10:45;31.32;35.11
68912;SHT31;55953;51.650;-0.522;2023-06-10T13:13:15;31.48;35.43
68912;SHT31;55953;51.650;-0.522;2023-06-10T13:15:43;31.78;35.69
68912;SHT31;55953;51.650;-0.522;2023-06-10T13:18:11;32.11;35.96
68912;SHT31;55953;51.650;-0.522;2023-06-10T13:20:39;32.40;34.00
68912;SHT31;55953;51.650;-0.522;2023-06-10T13:23:07;32.63;34.32
68912;SHT31;55953;51.650;-0.522;2023-06-10T13:25:35;32.78;32.82
68912;SHT31;55953;51.650;-0.522;2023-06-10T13:28:03;32.74;31.72
68912;SHT31;55953;51.650;-0.522;2023-06-10T13:30:31;32.70;32.00
68912;SHT31;55953;51.650;-0.522;2023-06-10T13:32:59;32.71;32.34
68912;SHT31;55953;51.650;-0.522;2023-06-10T13:35:28;32.69;32.72
68912;SHT31;55953;51.650;-0.522;2023-06-10T13:37:56;32.66;32.64
68912;SHT31;55953;51.650;-0.522;2023-06-10T13:40:24;32.64;32.96
68912;SHT31;55953;51.650;-0.522;2023-06-10T13:42:52;32.66;32.81
68912;SHT31;55953;51.650;-0.522;2023-06-10T13:45:21;32.75;32.98
68912;SHT31;55953;51.650;-0.522;2023-06-10T13:47:49;32.82;31.93
68912;SHT31;55953;51.650;-0.522;2023-06-10T13:50:18;32.79;31.77
68912;SHT31;55953;51.650;-0.522;2023-06-10T13:52:46;32.73;31.27
68912;SHT31;55953;51.650;-0.522;2023-06-10T13:55:14;32.67;31.68
68912;SHT31;55953;51.650;-0.522;2023-06-10T13:57:43;32.73;32.10
68912;SHT31;55953;51.650;-0.522;2023-06-10T14:00:11;32.79;31.73
68912;SHT31;55953;51.650;-0.522;2023-06-10T14:02:40;32.82;31.37
68912;SHT31;55953;51.650;-0.522;2023-06-10T14:05:09;32.68;30.71
68912;SHT31;55953;51.650;-0.522;2023-06-10T14:07:38;32.51;30.81
68912;SHT31;55953;51.650;-0.522;2023-06-10T14:10:08;32.36;30.99
68912;SHT31;55953;51.650;-0.522;2023-06-10T14:12:37;32.21;31.42
68912;SHT31;55953;51.650;-0.522;2023-06-10T14:15:05;32.22;31.64
68912;SHT31;55953;51.650;-0.522;2023-06-10T14:17:34;32.32;31.72
68912;SHT31;55953;51.650;-0.522;2023-06-10T14:20:02;32.40;31.35
68912;SHT31;55953;51.650;-0.522;2023-06-10T14:22:31;32.49;31.28
68912;SHT31;55953;51.650;-0.522;2023-06-10T14:24:59;32.57;31.23
68912;SHT31;55953;51.650;-0.522;2023-06-10T14:27:27;32.62;31.39
68912;SHT31;55953;51.650;-0.522;2023-06-10T14:29:55;32.67;31.54
68912;SHT31;55953;51.650;-0.522;2023-06-10T14:32:23;32.70;31.60
68912;SHT31;55953;51.650;-0.522;2023-06-10T14:34:51;32.55;31.42
68912;SHT31;55953;51.650;-0.522;2023-06-10T14:37:19;32.41;31.79
68912;SHT31;55953;51.650;-0.522;2023-06-10T14:39:46;32.27;31.54
68912;SHT31;55953;51.650;-0.522;2023-06-10T14:42:14;32.29;31.67
68912;SHT31;55953;51.650;-0.522;2023-06-10T14:44:42;32.40;31.74
68912;SHT31;55953;51.650;-0.522;2023-06-10T14:47:10;32.50;31.21
68912;SHT31;55953;51.650;-0.522;2023-06-10T14:49:38;32.54;31.09
68912;SHT31;55953;51.650;-0.522;2023-06-10T14:52:06;32.56;30.86
68912;SHT31;55953;51.650;-0.522;2023-06-10T14:54:34;32.65;31.26
68912;SHT31;55953;51.650;-0.522;2023-06-10T14:57:02;32.64;31.02
68912;SHT31;55953;51.650;-0.522;2023-06-10T14:59:30;32.62;31.67
68912;SHT31;55953;51.650;-0.522;2023-06-10T15:01:58;32.58;31.77
68912;SHT31;55953;51.650;-0.522;2023-06-10T15:04:28;32.54;32.09
68912;SHT31;55953;51.650;-0.522;2023-06-10T15:06:56;32.57;32.41
68912;SHT31;55953;51.650;-0.522;2023-06-10T15:09:24;32.63;32.04
68912;SHT31;55953;51.650;-0.522;2023-06-10T15:11:52;32.68;32.04
68912;SHT31;55953;51.650;-0.522;2023-06-10T15:14:20;32.70;32.21
68912;SHT31;55953;51.650;-0.522;2023-06-10T15:16:48;32.80;32.86
68912;SHT31;55953;51.650;-0.522;2023-06-10T15:19:16;32.84;32.45
68912;SHT31;55953;51.650;-0.522;2023-06-10T15:21:44;32.87;32.74
68912;SHT31;55953;51.650;-0.522;2023-06-10T15:24:12;32.79;32.40
68912;SHT31;55953;51.650;-0.522;2023-06-10T15:26:39;32.74;32.83
68912;SHT31;55953;51.650;-0.522;2023-06-10T15:29:08;32.72;32.83
68912;SHT31;55953;51.650;-0.522;2023-06-10T15:31:36;32.75;33.29
68912;SHT31;55953;51.650;-0.522;2023-06-10T15:34:05;32.82;33.30
68912;SHT31;55953;51.650;-0.522;2023-06-10T15:36:34;32.76;33.53
68912;SHT31;55953;51.650;-0.522;2023-06-10T15:39:04;32.72;33.30
68912;SHT31;55953;51.650;-0.522;2023-06-10T15:41:34;32.73;33.48
68912;SHT31;55953;51.650;-0.522;2023-06-10T15:44:02;32.71;33.74
68912;SHT31;55953;51.650;-0.522;2023-06-10T15:46:30;32.69;33.41
68912;SHT31;55953;51.650;-0.522;2023-06-10T15:48:59;32.68;33.44
68912;SHT31;55953;51.650;-0.522;2023-06-10T15:51:27;32.63;33.24
68912;SHT31;55953;51.650;-0.522;2023-06-10T15:53:55;32.53;33.41
68912;SHT31;55953;51.650;-0.522;2023-06-10T15:56:23;32.32;33.83
68912;SHT31;55953;51.650;-0.522;2023-06-10T15:58:52;32.24;34.24
68912;SHT31;55953;51.650;-0.522;2023-06-10T16:01:20;32.22;33.77
68912;SHT31;55953;51.650;-0.522;2023-06-10T16:03:48;32.11;32.96
68912;SHT31;55953;51.650;-0.522;2023-06-10T16:06:16;31.90;33.49